createdAt,value
2023-02-06T00:01:33.886Z,59.81
2023-02-06T00:04:01.833Z,59.36
2023-02-06T00:06:29.734Z,59.33
2023-02-06T00:08:57.403Z,59.66
2023-02-06T00:11:25.522Z,59.92
2023-02-06T00:13:54.507Z,59.49
2023-02-06T00:16:22.264Z,59.20
2023-02-06T00:18:50.347Z,59.26
2023-02-06T00:21:21.687Z,59.18
2023-02-06T00:23:54.055Z,59.32
2023-02-06T00:26:22.624Z,59.20
2023-02-06T00:28:50.383Z,59.91
2023-02-06T00:31:18.912Z,59.69
2023-02-06T00:33:47.405Z,59.59
2023-02-06T00:36:15.465Z,59.54
2023-02-06T00:38:43.250Z,59.63
2023-02-06T00:41:11.016Z,59.77
2023-02-06T00:43:39.081Z,59.71
2023-02-06T00:46:06.793Z,59.69
2023-02-06T00:48:34.651Z,59.62
2023-02-06T00:51:02.615Z,59.48
2023-02-06T00:53:30.281Z,59.39
2023-02-06T00:55:59.187Z,59.29
2023-02-06T00:58:26.920Z,59.32
2023-02-06T01:00:54.765Z,59.38
2023-02-06T01:03:24.158Z,59.24
2023-02-06T01:05:51.940Z,59.22
2023-02-06T01:08:19.604Z,58.80
2023-02-06T01:10:47.300Z,58.88
2023-02-06T01:13:14.963Z,58.79
2023-02-06T01:15:42.666Z,59.05
2023-02-06T01:18:10.517Z,58.88
2023-02-06T01:20:41.185Z,59.21
2023-02-06T01:23:08.933Z,59.48
2023-02-06T01:25:37.594Z,59.37
2023-02-06T01:28:05.500Z,59.28
2023-02-06T01:30:33.336Z,59.26
2023-02-06T01:33:01.032Z,59.60
2023-02-06T01:35:29.757Z,59.44
2023-02-06T01:37:57.588Z,59.71
2023-02-06T01:40:25.471Z,59.74
2023-02-06T01:42:53.131Z,60.25
2023-02-06T01:45:35.134Z,59.98
2023-02-06T01:48:06.464Z,59.97
2023-02-06T01:50:35.740Z,60.14
2023-02-06T01:53:04.747Z,60.12
2023-02-06T01:55:34.633Z,60.24
2023-02-06T01:58:02.802Z,60.41
2023-02-06T02:00:30.789Z,60.33
2023-02-06T02:02:58.632Z,60.29
2023-02-06T02:05:26.317Z,60.15
2023-02-06T02:08:01.212Z,59.79
2023-02-06T02:10:30.201Z,59.80
2023-02-06T02:12:58.423Z,60.19
2023-02-06T02:15:41.902Z,60.38
2023-02-06T02:18:26.954Z,60.70
2023-02-06T02:21:42.144Z,60.55
2023-02-06T02:24:46.017Z,60.33
2023-02-06T02:27:34.087Z,60.33
2023-02-06T02:30:39.392Z,60.64
2023-02-06T02:33:17.436Z,60.21
2023-02-06T02:35:58.077Z,60.22
2023-02-06T02:38:34.699Z,59.69
2023-02-06T02:41:15.832Z,59.77
2023-02-06T02:43:57.931Z,59.48
2023-02-06T02:46:31.533Z,59.53
2023-02-06T02:49:06.010Z,59.57
2023-02-06T02:51:35.595Z,59.52
2023-02-06T02:54:03.588Z,59.55
2023-02-06T02:56:33.605Z,59.55
2023-02-06T02:59:09.678Z,59.60
2023-02-06T03:01:58.128Z,59.45
2023-02-06T03:04:31.107Z,59.33
2023-02-06T03:07:31.509Z,59.67
2023-02-06T03:10:08.586Z,59.91
2023-02-06T03:13:01.064Z,59.56
2023-02-06T03:16:06.713Z,59.67
2023-02-06T03:18:48.888Z,59.35
2023-02-06T03:21:19.137Z,59.45
2023-02-06T03:23:49.382Z,59.39
2023-02-06T03:26:20.802Z,59.83
2023-02-06T03:28:53.652Z,60.01
2023-02-06T03:31:32.308Z,59.67
2023-02-06T03:34:14.591Z,60.16
2023-02-06T03:36:42.500Z,60.78
2023-02-06T03:39:10.268Z,60.80
2023-02-06T03:41:39.571Z,60.45
2023-02-06T03:44:10.643Z,60.67
2023-02-06T03:46:39.392Z,60.65
2023-02-06T03:49:08.059Z,60.43
2023-02-06T03:51:57.576Z,60.36
2023-02-06T03:54:26.459Z,60.35
2023-02-06T03:57:00.244Z,60.13
2023-02-06T03:59:28.214Z,60.03
2023-02-06T04:01:58.289Z,59.88
2023-02-06T04:04:30.436Z,59.71
2023-02-06T04:07:15.189Z,59.74
2023-02-06T04:09:42.897Z,59.65
2023-02-06T04:12:10.941Z,59.49
2023-02-06T04:14:38.721Z,59.42
2023-02-06T04:17:07.032Z,59.46
2023-02-06T04:19:35.033Z,59.70
2023-02-06T04:22:03.058Z,60.07
2023-02-06T04:24:31.165Z,60.33
2023-02-06T04:26:59.297Z,60.38
2023-02-06T04:29:27.060Z,60.29
2023-02-06T04:31:54.759Z,60.06
2023-02-06T04:34:22.518Z,59.80
2023-02-06T04:36:50.462Z,60.07
2023-02-06T04:39:18.094Z,60.19
2023-02-06T04:41:45.731Z,59.75
2023-02-06T04:44:13.529Z,59.99
2023-02-06T04:46:43.147Z,60.05
2023-02-06T04:49:11.626Z,59.95
2023-02-06T04:51:39.588Z,59.90
2023-02-06T04:54:07.824Z,60.04
2023-02-06T04:56:35.589Z,59.79
2023-02-06T04:59:03.277Z,59.99
2023-02-06T05:01:31.092Z,60.43
2023-02-06T05:03:59.062Z,60.49
2023-02-06T05:06:26.697Z,60.33
2023-02-06T05:08:54.318Z,60.32
2023-02-06T05:11:22.019Z,60.31
2023-02-06T05:13:49.748Z,60.35
2023-02-06T05:16:18.045Z,60.21
2023-02-06T05:18:46.192Z,60.37
2023-02-06T05:21:15.004Z,60.09
2023-02-06T05:23:42.659Z,60.18
2023-02-06T05:26:10.329Z,59.93
2023-02-06T05:28:38.048Z,59.90
2023-02-06T05:31:05.889Z,59.89
2023-02-06T05:33:33.733Z,59.71
2023-02-06T05:36:07.002Z,59.51
2023-02-06T05:38:34.780Z,59.50
2023-02-06T05:41:03.456Z,59.59
2023-02-06T05:43:31.159Z,59.50
2023-02-06T05:45:58.816Z,59.47
2023-02-06T05:48:29.009Z,59.66
2023-02-06T05:50:58.209Z,59.68
2023-02-06T05:53:26.000Z,59.90
2023-02-06T05:55:53.639Z,59.62
2023-02-06T05:58:21.361Z,59.64
2023-02-06T06:00:48.976Z,59.61
2023-02-06T06:03:16.681Z,59.51
2023-02-06T06:05:45.105Z,59.59
2023-02-06T06:08:12.864Z,59.52
2023-02-06T06:10:40.538Z,59.48
2023-02-06T06:13:08.503Z,59.65
2023-02-06T06:15:36.502Z,59.62
2023-02-06T06:18:04.532Z,59.69
2023-02-06T06:20:32.273Z,60.45
2023-02-06T06:22:59.995Z,60.73
2023-02-06T06:25:27.716Z,60.69
2023-02-06T06:27:55.399Z,60.73
2023-02-06T06:30:23.123Z,61.28
2023-02-06T06:32:50.780Z,61.29
2023-02-06T06:35:18.551Z,61.19
2023-02-06T06:37:46.155Z,61.07
2023-02-06T06:40:14.155Z,61.02
2023-02-06T06:42:41.999Z,60.58
2023-02-06T06:45:09.868Z,60.57
2023-02-06T06:47:37.516Z,60.54
2023-02-06T06:50:06.268Z,60.22
2023-02-06T06:52:34.051Z,60.43
2023-02-06T06:55:01.823Z,60.13
2023-02-06T06:57:32.643Z,62.38
2023-02-06T07:00:00.334Z,65.57
2023-02-06T07:02:28.613Z,64.59
2023-02-06T07:04:56.542Z,64.16
2023-02-06T07:07:24.357Z,64.47
2023-02-06T07:09:52.071Z,63.73
2023-02-06T07:12:19.904Z,63.91
2023-02-06T07:14:47.714Z,65.81
2023-02-06T07:17:15.379Z,65.40
2023-02-06T07:19:47.957Z,63.05
2023-02-06T07:22:15.962Z,62.42
2023-02-06T07:24:43.671Z,62.51
2023-02-06T07:27:11.587Z,61.81
2023-02-06T07:29:39.280Z,61.08
2023-02-06T07:32:07.034Z,60.84
2023-02-06T07:34:35.940Z,60.56
2023-02-06T07:37:04.315Z,60.74
2023-02-06T07:39:32.410Z,60.58
2023-02-06T07:42:00.142Z,60.66
2023-02-06T07:44:32.813Z,60.57
2023-02-06T07:47:00.456Z,60.55
2023-02-06T07:49:28.249Z,60.34
2023-02-06T07:51:55.982Z,60.25
2023-02-06T07:54:23.700Z,60.17
2023-02-06T07:56:51.472Z,60.01
2023-02-06T07:59:19.184Z,60.12
2023-02-06T08:01:46.842Z,60.14
2023-02-06T08:04:14.504Z,59.93
2023-02-06T08:06:43.531Z,59.90
2023-02-06T08:09:13.494Z,60.03
2023-02-06T08:11:47.995Z,60.10
2023-02-06T08:14:15.720Z,60.05
2023-02-06T08:16:43.449Z,59.87
2023-02-06T08:19:12.322Z,59.52
2023-02-06T08:21:39.966Z,59.68
2023-02-06T08:24:07.995Z,59.39
2023-02-06T08:26:35.689Z,59.34
2023-02-06T08:29:08.587Z,58.94
2023-02-06T08:31:38.836Z,58.87
2023-02-06T08:34:07.870Z,58.82
2023-02-06T08:36:35.738Z,58.84
2023-02-06T08:39:04.665Z,58.81
2023-02-06T08:41:37.132Z,58.46
2023-02-06T08:44:06.548Z,58.47
2023-02-06T08:46:34.978Z,58.72
2023-02-06T08:49:06.011Z,58.71
2023-02-06T08:51:35.230Z,59.01
2023-02-06T08:54:05.558Z,58.58
2023-02-06T08:56:34.682Z,58.08
2023-02-06T08:59:02.354Z,57.56
2023-02-06T14:02:42.317Z,41.32
2023-02-06T14:05:16.088Z,41.19
2023-02-06T14:07:52.250Z,41.30
2023-02-06T14:10:22.639Z,41.35
2023-02-06T14:13:03.197Z,41.83
2023-02-06T14:15:36.807Z,42.15
2023-02-06T14:18:17.482Z,42.68
2023-02-06T14:21:06.603Z,43.00
2023-02-06T14:23:55.607Z,43.27
2023-02-06T14:26:47.927Z,43.80
2023-02-06T14:29:44.669Z,43.59
2023-02-06T14:32:33.921Z,43.79
2023-02-06T14:35:47.292Z,44.17
2023-02-06T14:38:48.790Z,43.70
2023-02-06T14:41:16.788Z,43.29
2023-02-06T14:43:46.189Z,43.58
2023-02-06T14:46:16.400Z,43.60
2023-02-06T14:48:58.594Z,43.82
2023-02-06T14:51:29.318Z,44.14
2023-02-06T14:54:04.059Z,44.28
2023-02-06T14:56:36.283Z,44.77
2023-02-06T14:59:13.026Z,45.04
2023-02-06T15:01:42.398Z,45.54
2023-02-06T15:04:18.867Z,45.85
2023-02-06T15:07:04.982Z,45.80
2023-02-06T15:09:35.224Z,45.55
2023-02-06T15:12:16.773Z,45.78
2023-02-06T15:14:53.967Z,46.06
2023-02-06T15:17:24.213Z,46.19
2023-02-06T15:19:51.936Z,46.27
2023-02-06T15:22:27.987Z,46.07
2023-02-06T15:25:03.023Z,46.02
2023-02-06T15:27:38.440Z,46.45
2023-02-06T15:30:25.956Z,46.40
2023-02-06T15:32:55.961Z,46.50
2023-02-06T15:35:32.382Z,46.74
2023-02-06T15:38:11.690Z,46.86
2023-02-06T15:40:42.256Z,47.01
2023-02-06T15:43:30.237Z,47.15
2023-02-06T15:46:00.237Z,47.28
2023-02-06T15:48:33.796Z,47.25
2023-02-06T15:51:20.190Z,47.38
2023-02-06T15:53:49.541Z,47.25
2023-02-06T15:56:26.858Z,47.71
2023-02-06T15:59:02.956Z,47.78
2023-02-06T16:01:37.202Z,48.05
2023-02-06T16:04:29.961Z,48.31
2023-02-06T16:07:02.088Z,48.06
2023-02-06T16:09:30.401Z,48.00
2023-02-06T16:11:58.368Z,47.96
2023-02-06T16:14:32.078Z,48.05
2023-02-06T16:17:20.014Z,48.04
2023-02-06T16:20:04.960Z,48.12
2023-02-06T16:22:38.245Z,48.10
2023-02-06T16:25:21.918Z,48.05
2023-02-06T16:27:51.216Z,48.15
2023-02-06T16:30:28.451Z,48.28
2023-02-06T16:32:57.372Z,48.40
2023-02-06T16:35:25.615Z,48.50
2023-02-06T16:37:54.224Z,48.62
2023-02-06T16:40:22.238Z,48.78
2023-02-06T16:42:50.195Z,48.95
2023-02-06T16:45:23.661Z,48.88
2023-02-06T16:47:51.464Z,49.05
2023-02-06T16:50:21.524Z,49.01
2023-02-06T16:52:52.046Z,49.28
2023-02-06T16:55:25.076Z,49.22
2023-02-06T16:57:55.077Z,49.34
2023-02-06T17:00:25.794Z,49.65
2023-02-06T17:02:54.260Z,49.77
2023-02-06T17:05:24.113Z,49.70
2023-02-06T17:07:52.733Z,49.83
2023-02-06T17:10:23.868Z,49.65
2023-02-06T17:12:52.426Z,49.56
2023-02-06T17:15:20.735Z,49.68
2023-02-06T17:17:48.437Z,50.20
2023-02-06T17:20:31.736Z,50.47
2023-02-06T17:22:59.684Z,50.78
2023-02-06T17:25:27.401Z,50.62
2023-02-06T17:27:56.185Z,50.49
2023-02-06T17:30:25.755Z,50.59
2023-02-06T17:32:53.582Z,50.77
2023-02-06T17:35:21.525Z,51.02
2023-02-06T17:37:49.390Z,51.00
2023-02-06T17:40:23.440Z,50.98
2023-02-06T17:42:51.250Z,51.36
2023-02-06T17:45:18.904Z,51.51
2023-02-06T17:47:46.884Z,51.77
2023-02-06T17:50:17.509Z,51.42
2023-02-06T17:52:45.250Z,51.71
2023-02-06T17:55:13.227Z,51.98
2023-02-06T17:57:41.172Z,52.29
2023-02-06T18:00:13.680Z,52.10
2023-02-06T18:02:42.049Z,52.22
2023-02-06T18:05:09.980Z,52.31
2023-02-06T18:07:38.508Z,52.35
2023-02-06T18:10:07.310Z,52.36
2023-02-06T18:12:35.018Z,52.68
2023-02-06T18:15:05.056Z,52.73
2023-02-06T18:17:33.678Z,52.93
2023-02-06T18:20:01.695Z,53.04
2023-02-06T18:22:29.370Z,53.24
2023-02-06T18:24:57.151Z,53.53
2023-02-06T18:27:24.803Z,53.46
2023-02-06T18:29:55.008Z,53.57
2023-02-06T18:32:22.677Z,53.45
2023-02-06T18:34:50.408Z,53.66
2023-02-06T18:37:18.070Z,53.89
2023-02-06T18:39:46.889Z,54.11
2023-02-06T18:42:33.142Z,54.02
2023-02-06T18:45:03.732Z,53.99
2023-02-06T18:47:31.889Z,54.09
2023-02-06T18:49:59.538Z,53.92
2023-02-06T18:52:27.454Z,54.15
2023-02-06T18:54:55.099Z,53.94
2023-02-06T18:57:22.835Z,54.38
2023-02-06T18:59:50.565Z,54.18
2023-02-06T19:02:18.368Z,54.33
2023-02-06T19:04:46.374Z,54.29
2023-02-06T19:07:15.442Z,54.15
2023-02-06T19:09:43.169Z,53.91
2023-02-06T19:12:11.014Z,54.28
2023-02-06T19:14:39.951Z,54.54
2023-02-06T19:17:08.029Z,54.77
2023-02-06T19:19:35.796Z,54.80
2023-02-06T19:22:03.502Z,55.10
2023-02-06T19:24:31.615Z,55.29
2023-02-06T19:26:59.429Z,55.60
2023-02-06T19:29:35.672Z,55.47
2023-02-06T19:32:08.159Z,55.42
2023-02-06T19:34:40.280Z,55.37
2023-02-06T19:37:09.393Z,55.27
2023-02-06T19:39:40.106Z,55.39
2023-02-06T19:42:09.748Z,55.29
2023-02-06T19:44:37.450Z,55.27
2023-02-06T19:47:05.169Z,55.28
2023-02-06T19:49:33.007Z,55.25
2023-02-06T19:52:01.275Z,55.46
2023-02-06T19:54:29.068Z,55.75
2023-02-06T19:56:56.754Z,56.37
2023-02-06T19:59:26.279Z,56.25
2023-02-06T20:01:55.969Z,56.83
2023-02-06T20:04:29.876Z,56.99
2023-02-06T20:06:57.708Z,56.93
2023-02-06T20:09:26.993Z,56.90
2023-02-06T20:11:55.703Z,56.64
2023-02-06T20:14:23.975Z,56.50
2023-02-06T20:16:52.201Z,56.44
2023-02-06T20:19:27.883Z,56.17
2023-02-06T20:21:58.690Z,56.22
2023-02-06T20:24:30.194Z,56.11
2023-02-06T20:27:00.737Z,55.94
2023-02-06T20:29:37.414Z,55.96
2023-02-06T20:32:06.326Z,55.97
2023-02-06T20:34:34.827Z,55.86
2023-02-06T20:37:02.777Z,56.04
2023-02-06T20:39:31.220Z,56.13
2023-02-06T20:41:59.053Z,56.13
2023-02-06T20:44:27.401Z,56.09
2023-02-06T20:46:55.346Z,56.47
2023-02-06T20:49:26.101Z,56.26
2023-02-06T20:51:54.254Z,56.15
2023-02-06T20:54:22.469Z,56.57
2023-02-06T20:56:50.209Z,56.51
2023-02-06T20:59:19.626Z,56.42
2023-02-06T21:01:48.014Z,56.32
2023-02-06T21:04:16.546Z,56.19
2023-02-06T21:06:46.462Z,56.18
2023-02-06T21:09:14.192Z,56.14
2023-02-06T21:11:47.536Z,56.31
2023-02-06T21:14:16.268Z,56.12
2023-02-06T21:16:44.298Z,56.12
2023-02-06T21:19:14.363Z,56.00
2023-02-06T21:21:45.580Z,56.04
2023-02-06T21:24:14.615Z,56.00
2023-02-06T21:26:42.675Z,55.89
2023-02-06T21:29:11.638Z,56.04
2023-02-06T21:31:39.451Z,56.23
2023-02-06T21:34:15.308Z,56.40
2023-02-06T21:36:43.489Z,56.23
2023-02-06T21:39:15.729Z,56.62
2023-02-06T21:41:43.664Z,56.84
2023-02-06T21:44:11.580Z,56.77
2023-02-06T21:46:40.275Z,56.56
2023-02-06T21:49:11.468Z,56.69
2023-02-06T21:51:39.621Z,56.29
2023-02-06T21:54:08.182Z,56.41
2023-02-06T21:56:38.251Z,56.45
2023-02-06T21:59:07.085Z,56.41
2023-02-06T22:01:35.203Z,56.71
2023-02-06T22:04:03.530Z,56.73
2023-02-06T22:06:32.273Z,56.54
2023-02-06T22:09:05.226Z,56.38
2023-02-06T22:11:36.090Z,56.49
2023-02-06T22:14:12.444Z,56.38
2023-02-06T22:16:40.434Z,56.14
2023-02-06T22:19:10.319Z,56.11
2023-02-06T22:21:38.441Z,56.16
2023-02-06T22:24:07.351Z,56.15
2023-02-06T22:26:36.865Z,56.08
2023-02-06T22:29:06.397Z,55.79
2023-02-06T22:31:35.316Z,56.29
2023-02-06T22:34:03.263Z,56.05
2023-02-06T22:36:32.775Z,56.09
2023-02-06T22:39:06.678Z,56.23
2023-02-06T22:41:35.723Z,56.14
2023-02-06T22:44:03.622Z,56.10
2023-02-06T22:46:34.033Z,56.38
2023-02-06T22:49:01.806Z,56.66
2023-02-06T22:51:29.821Z,56.39
2023-02-06T22:53:57.500Z,56.28
2023-02-06T22:56:28.059Z,56.28
2023-02-06T22:59:18.059Z,56.69
2023-02-06T23:01:50.887Z,56.65
2023-02-06T23:04:29.743Z,56.73
2023-02-06T23:06:57.535Z,57.40
2023-02-06T23:09:28.172Z,57.51
2023-02-06T23:11:58.391Z,57.24
2023-02-06T23:14:27.610Z,57.34
2023-02-06T23:16:55.462Z,57.59
2023-02-06T23:19:23.354Z,57.02
2023-02-06T23:21:51.543Z,56.69
2023-02-06T23:24:19.919Z,56.52
2023-02-06T23:26:49.353Z,56.43
2023-02-06T23:29:18.629Z,56.29
2023-02-06T23:31:47.611Z,56.25
2023-02-06T23:34:17.077Z,56.50
2023-02-06T23:36:44.798Z,56.09
2023-02-06T23:39:12.627Z,56.02
2023-02-06T23:41:40.815Z,56.19
2023-02-06T23:44:09.049Z,56.56
2023-02-06T23:46:37.952Z,57.06
2023-02-06T23:49:06.752Z,56.83
2023-02-06T23:51:36.368Z,56.70
2023-02-06T23:54:05.771Z,57.16
2023-02-06T23:56:33.796Z,57.09
2023-02-06T23:59:02.421Z,57.50
